createdAt,value
2023-03-01T00:01:33.276Z,-11121.84
2023-03-01T00:04:39.340Z,-11123.97
2023-03-01T00:07:45.519Z,-11127.34
2023-03-01T00:10:51.739Z,-11124.81
2023-03-01T00:14:02.486Z,-11125.38
2023-03-01T00:17:08.885Z,-11117.22
2023-03-01T00:20:15.498Z,-11122.13
2023-03-01T00:23:22.482Z,-11120.59
2023-03-01T00:26:29.479Z,-11115.53
2023-03-01T00:29:37.106Z,-11096.16
2023-03-01T00:32:43.146Z,-11104.72
2023-03-01T00:35:49.447Z,-11114.41
2023-03-01T00:38:55.717Z,-11110.34
2023-03-01T00:42:02.316Z,-11111.47
2023-03-01T00:45:11.214Z,-11103.88
2023-03-01T00:48:17.409Z,-11102.62
2023-03-01T00:51:26.187Z,-11105.56
2023-03-01T00:54:32.739Z,-11106.84
2023-03-01T00:57:39.086Z,-11104.31
2023-03-01T01:00:46.676Z,-11116.81
2023-03-01T01:03:55.368Z,-11113.16
2023-03-01T01:07:01.747Z,-11095.88
2023-03-01T01:10:09.394Z,-11112.72
2023-03-01T01:13:15.577Z,-11097.00
2023-03-01T01:16:25.728Z,-11100.94
2023-03-01T01:19:32.448Z,-11106.28
2023-03-01T01:22:38.678Z,-11107.69
2023-03-01T01:25:44.847Z,-11111.31
2023-03-01T01:28:51.900Z,-11111.59
2023-03-01T01:31:59.550Z,-11111.88
2023-03-01T01:35:06.381Z,-11107.69
2023-03-01T01:38:12.751Z,-11112.72
2023-03-01T01:41:19.472Z,-11109.78
2023-03-01T01:44:27.292Z,-11109.91
2023-03-01T01:47:34.741Z,-11111.03
2023-03-01T01:50:42.905Z,-11109.50
2023-03-01T01:53:53.446Z,-11106.41
2023-03-01T01:57:02.999Z,-11110.19
2023-03-01T02:00:13.018Z,-11097.41
2023-03-01T02:03:26.563Z,-11102.91
2023-03-01T02:06:38.073Z,-11101.06
2023-03-01T02:09:46.405Z,-11105.16
2023-03-01T02:12:53.500Z,-11101.34
2023-03-01T02:16:00.048Z,-11104.44
2023-03-01T02:19:09.263Z,-11106.84
2023-03-01T02:22:24.308Z,-11107.25
2023-03-01T02:25:39.995Z,-11112.44
2023-03-01T02:28:48.708Z,-11105.00
2023-03-01T02:31:57.720Z,-11103.19
2023-03-01T02:35:07.595Z,-11101.78
2023-03-01T02:38:14.111Z,-11095.03
2023-03-01T02:41:22.906Z,-11102.91
2023-03-01T02:44:30.136Z,-11101.50
2023-03-01T02:47:36.109Z,-11099.81
2023-03-01T02:50:55.662Z,-11103.47
2023-03-01T02:54:14.434Z,-11099.66
2023-03-01T02:57:23.057Z,-11100.38
2023-03-01T03:00:35.256Z,-11103.19
2023-03-01T03:03:41.602Z,-11095.88
2023-03-01T03:06:48.949Z,-11088.56
2023-03-01T03:09:55.125Z,-11094.47
2023-03-01T03:13:04.016Z,-11102.75
2023-03-01T03:16:11.813Z,-11097.00
2023-03-01T03:19:18.893Z,-11097.97
2023-03-01T03:22:25.376Z,-11102.91
2023-03-01T03:25:32.220Z,-11102.62
2023-03-01T03:28:41.008Z,-11091.09
2023-03-01T03:31:48.950Z,-11094.88
2023-03-01T03:34:55.267Z,-11093.78
2023-03-01T03:38:07.470Z,-11095.59
2023-03-01T03:41:14.325Z,-11095.59
2023-03-01T03:47:46.234Z,-11101.22
2023-03-01T03:50:54.352Z,-11098.97
2023-03-01T03:54:00.876Z,-11092.09
2023-03-01T03:57:24.548Z,-11089.13
2023-03-01T04:00:31.277Z,-11090.69
2023-03-01T04:03:38.850Z,-11094.59
2023-03-01T04:06:44.932Z,-11094.03
2023-03-01T04:09:51.268Z,-11089.28
2023-03-01T04:12:58.122Z,-11088.16
2023-03-01T04:16:04.532Z,-11090.81
2023-03-01T04:19:12.104Z,-11088.16
2023-03-01T04:22:18.497Z,-11092.38
2023-03-01T04:25:24.654Z,-11091.38
2023-03-01T04:28:33.866Z,-11082.69
2023-03-01T04:31:40.443Z,-11084.91
2023-03-01T04:34:47.947Z,-11079.31
2023-03-01T04:37:54.456Z,-11082.81
2023-03-01T04:41:00.561Z,-11088.28
2023-03-01T04:44:06.783Z,-11092.94
2023-03-01T04:47:13.823Z,-11084.34
2023-03-01T04:50:22.808Z,-11081.69
2023-03-01T04:53:28.839Z,-11088.44
2023-03-01T04:56:34.899Z,-11086.03
2023-03-01T04:59:40.806Z,-11092.66
2023-03-01T05:02:47.136Z,-11090.25
2023-03-01T05:05:55.194Z,-11085.47
2023-03-01T05:09:01.389Z,-11081.84
2023-03-01T05:12:08.087Z,-11083.78
2023-03-01T05:15:14.526Z,-11095.88
2023-03-01T05:18:21.046Z,-11092.50
2023-03-01T05:21:28.865Z,-11097.00
2023-03-01T05:24:37.072Z,-11101.78
2023-03-01T05:27:43.478Z,-11096.72
2023-03-01T05:30:52.804Z,-11103.03
2023-03-01T05:33:58.939Z,-11102.06
2023-03-01T05:37:08.731Z,-11089.69
2023-03-01T05:40:17.768Z,-11098.41
2023-03-01T05:43:23.969Z,-11098.53
2023-03-01T05:46:30.735Z,-11102.62
2023-03-01T05:49:39.626Z,-11101.78
2023-03-01T05:52:49.589Z,-11107.41
2023-03-01T05:55:56.021Z,-11106.28
2023-03-01T05:59:02.157Z,-11105.72
2023-03-01T06:02:08.407Z,-11100.09
2023-03-01T06:05:16.314Z,-11107.69
2023-03-01T06:08:25.419Z,-11106.84
2023-03-01T06:11:31.729Z,-11110.75
2023-03-01T06:14:38.259Z,-11109.91
2023-03-01T06:17:47.063Z,-11107.97
2023-03-01T06:20:55.915Z,-11107.81
2023-03-01T06:24:03.812Z,-11106.84
2023-03-01T06:27:10.308Z,-11100.38
2023-03-01T06:30:18.164Z,-11104.44
2023-03-01T06:33:25.384Z,-11110.47
2023-03-01T06:36:31.843Z,-11106.69
2023-03-01T06:39:40.137Z,-11104.72
2023-03-01T06:42:51.478Z,-11152.19
2023-03-01T06:45:58.156Z,-11129.72
2023-03-01T06:49:05.685Z,-11124.38
2023-03-01T06:52:11.831Z,-11113.84
2023-03-01T06:55:19.534Z,-11109.91
2023-03-01T06:58:26.256Z,-11110.47
2023-03-01T07:01:33.155Z,-11104.59
2023-03-01T07:04:39.804Z,-11116.09
2023-03-01T07:07:46.215Z,-11126.91
2023-03-01T07:10:58.725Z,-11123.97
2023-03-01T07:14:04.878Z,-11124.53
2023-03-01T07:17:11.445Z,-11125.94
2023-03-01T07:20:17.685Z,-11127.34
2023-03-01T07:23:24.174Z,-11130.69
2023-03-01T07:26:31.935Z,-11128.19
2023-03-01T07:29:38.592Z,-11120.59
2023-03-01T07:32:46.525Z,-11124.81
2023-03-01T07:35:58.802Z,-11121.44
2023-03-01T07:39:05.649Z,-11139.00
2023-03-01T07:42:13.217Z,-11120.44
2023-03-01T07:45:19.734Z,-11126.34
2023-03-01T07:48:26.067Z,-11132.38
2023-03-01T07:51:32.132Z,-11130.84
2023-03-01T07:54:38.392Z,-11127.91
2023-03-01T07:57:45.774Z,-11129.59
2023-03-01T08:00:51.929Z,-11132.38
2023-03-01T08:03:58.680Z,-11126.78
2023-03-01T08:07:08.035Z,-11136.47
2023-03-01T08:10:14.268Z,-11135.91
2023-03-01T08:13:23.557Z,-11133.50
2023-03-01T08:16:30.339Z,-11128.59
2023-03-01T08:19:37.061Z,-11130.13
2023-03-01T08:22:43.746Z,-11138.84
2023-03-01T08:25:50.008Z,-11141.94
2023-03-01T08:28:58.318Z,-11138.84
2023-03-01T08:32:04.768Z,-11142.78
2023-03-01T08:35:11.283Z,-11149.25
2023-03-01T08:38:17.888Z,-11151.22
2023-03-01T08:41:24.725Z,-11154.31
2023-03-01T08:44:32.498Z,-11160.78
2023-03-01T08:47:39.152Z,-11176.38
2023-03-01T08:50:45.763Z,-11180.88
2023-03-01T08:53:52.268Z,-11187.47
2023-03-01T08:57:00.140Z,-11179.03
2023-03-01T09:00:10.717Z,-11197.31
2023-03-01T09:03:17.248Z,-11184.09
2023-03-01T09:06:24.021Z,-11212.78
2023-03-01T09:12:54.515Z,-11171.19
2023-03-01T09:16:04.142Z,-11177.91
2023-03-01T09:19:10.387Z,-11181.84
2023-03-01T09:22:17.011Z,-11189.88
2023-03-01T09:25:23.226Z,-11194.22
2023-03-01T09:28:30.447Z,-11201.13
2023-03-01T09:31:38.486Z,-11216.44
2023-03-01T09:35:05.712Z,-11223.19
2023-03-01T09:38:12.296Z,-11231.06
2023-03-01T09:41:33.249Z,-11242.03
2023-03-01T09:44:48.494Z,-11232.19
2023-03-01T09:47:56.941Z,-11216.88
2023-03-01T09:51:09.291Z,-11229.37
2023-03-01T09:54:15.564Z,-11225.88
2023-03-01T09:57:28.592Z,-11217.44
2023-03-01T10:00:42.033Z,-11207.31
2023-03-01T10:04:03.277Z,-11221.66
2023-03-01T10:07:23.738Z,-11218.41
2023-03-01T10:10:34.256Z,-11249.94
2023-03-01T10:13:50.237Z,-11247.69
2023-03-01T10:17:03.762Z,-11252.88
2023-03-01T10:20:22.563Z,-11250.78
2023-03-01T10:23:32.470Z,-11253.44
2023-03-01T10:26:49.562Z,-11238.09
2023-03-01T10:30:05.341Z,-11219.13
2023-03-01T10:33:19.282Z,-11243.31
2023-03-01T10:36:27.212Z,-11248.53
2023-03-01T10:39:35.066Z,-11251.91
2023-03-01T10:42:49.175Z,-11254.16
2023-03-01T10:45:56.110Z,-11233.31
2023-03-01T10:49:15.862Z,-11257.53
2023-03-01T10:52:26.150Z,-11256.25
2023-03-01T10:55:37.450Z,-11217.28
2023-03-01T10:58:59.619Z,-11229.53
2023-03-01T11:02:26.213Z,-11259.34
2023-03-01T11:05:34.741Z,-11238.94
2023-03-01T11:08:45.762Z,-11259.78
2023-03-01T11:11:56.236Z,-11253.88
2023-03-01T11:15:03.570Z,-11259.50
2023-03-01T11:18:28.706Z,-11264.56
2023-03-01T11:21:45.820Z,-11251.34
2023-03-01T11:25:08.852Z,-11255.28
2023-03-01T11:28:20.187Z,-11239.50
2023-03-01T11:31:29.055Z,-11261.19
2023-03-01T11:34:44.619Z,-11273.72
2023-03-01T11:38:01.894Z,-11251.34
2023-03-01T11:41:15.618Z,-11254.16
2023-03-01T11:44:27.663Z,-11241.63
2023-03-01T11:47:48.568Z,-11240.91
2023-03-01T11:50:57.120Z,-11260.06
2023-03-01T11:54:15.897Z,-11248.53
2023-03-01T11:57:43.750Z,-11241.47
2023-03-01T12:01:05.938Z,-11230.78
2023-03-01T12:04:33.090Z,-11235.31
2023-03-01T12:07:50.298Z,-11248.53
2023-03-01T12:11:06.264Z,-11228.69
2023-03-01T12:14:31.091Z,-11248.53
2023-03-01T12:18:00.719Z,-11246.28
2023-03-01T12:21:21.711Z,-11228.53
2023-03-01T12:24:49.584Z,-11246.00
2023-03-01T12:28:14.106Z,-11270.19
2023-03-01T12:31:52.820Z,-11241.47
2023-03-01T12:35:16.036Z,-11251.91
2023-03-01T12:38:36.422Z,-11253.88
2023-03-01T12:42:04.036Z,-11247.69
2023-03-01T12:45:37.319Z,-11257.38
2023-03-01T12:48:53.453Z,-11243.47
2023-03-01T12:52:04.121Z,-11239.94
2023-03-01T12:55:21.861Z,-11241.19
2023-03-01T12:58:48.660Z,-11239.22
2023-03-01T13:02:04.302Z,-11245.56
2023-03-01T13:05:26.543Z,-11243.75
2023-03-01T13:08:42.784Z,-11245.72
2023-03-01T13:11:49.185Z,-11245.56
2023-03-01T13:14:56.816Z,-11250.50
2023-03-01T13:18:05.852Z,-11228.25
2023-03-01T13:21:13.635Z,-11238.38
2023-03-01T13:24:31.343Z,-11232.47
2023-03-01T13:27:37.946Z,-11237.56
2023-03-01T13:30:44.882Z,-11235.88
2023-03-01T13:33:51.734Z,-11245.16
2023-03-01T13:37:11.945Z,-11245.56
2023-03-01T13:41:07.216Z,-11253.88
2023-03-01T13:44:15.500Z,-11258.09
2023-03-01T13:47:23.797Z,-11254.56
2023-03-01T13:50:35.028Z,-11245.72
2023-03-01T13:53:46.306Z,-11238.53
2023-03-01T13:56:52.507Z,-11248.53
2023-03-01T13:59:58.747Z,-11245.72
2023-03-01T14:03:08.242Z,-11246.28
2023-03-01T14:06:19.750Z,-11228.13
2023-03-01T14:09:35.917Z,-11250.63
2023-03-01T14:12:48.728Z,-11254.00
2023-03-01T14:16:12.532Z,-11256.25
2023-03-01T14:19:32.733Z,-11242.31
2023-03-01T14:22:44.064Z,-11246.56
2023-03-01T14:25:54.154Z,-11249.37
2023-03-01T14:29:00.614Z,-11261.47
2023-03-01T14:32:12.877Z,-11254.00
2023-03-01T14:35:24.008Z,-11251.06
2023-03-01T14:38:35.812Z,-11258.09
2023-03-01T14:41:43.557Z,-11250.91
2023-03-01T14:44:52.856Z,-11242.47
2023-03-01T14:48:03.627Z,-11251.34
2023-03-01T14:51:10.289Z,-11245.00
2023-03-01T14:54:24.552Z,-11246.28
2023-03-01T14:57:32.671Z,-11240.78
2023-03-01T15:00:40.068Z,-11247.41
2023-03-01T15:03:48.739Z,-11245.00
2023-03-01T15:06:56.586Z,-11241.47
2023-03-01T15:10:05.525Z,-11236.28
2023-03-01T15:13:23.671Z,-11222.91
2023-03-01T15:16:33.091Z,-11231.06
2023-03-01T15:19:39.766Z,-11230.09
2023-03-01T15:22:49.616Z,-11236.72
2023-03-01T15:25:58.712Z,-11229.94
2023-03-01T15:29:06.408Z,-11231.50
2023-03-01T15:32:28.435Z,-11231.63
2023-03-01T15:35:44.139Z,-11236.16
2023-03-01T15:38:55.532Z,-11232.19
2023-03-01T15:42:02.280Z,-11220.09
2023-03-01T15:45:23.289Z,-11221.22
2023-03-01T15:48:30.135Z,-11223.19
2023-03-01T15:51:38.617Z,-11224.03
2023-03-01T15:54:44.887Z,-11221.78
2023-03-01T15:57:52.368Z,-11220.53
2023-03-01T16:01:02.050Z,-11216.16
2023-03-01T16:04:09.458Z,-11216.16
2023-03-01T16:07:15.660Z,-11213.63
2023-03-01T16:10:23.354Z,-11215.31
2023-03-01T16:13:29.679Z,-11213.06
2023-03-01T16:16:37.517Z,-11210.97
2023-03-01T16:19:44.173Z,-11211.94
2023-03-01T16:22:50.656Z,-11209.41
2023-03-01T16:26:00.862Z,-11206.59
2023-03-01T16:29:08.010Z,-11206.88
2023-03-01T16:32:16.162Z,-11201.97
2023-03-01T16:35:24.510Z,-11201.13
2023-03-01T16:38:33.773Z,-11202.94
2023-03-01T16:41:40.201Z,-11205.06
2023-03-01T16:44:46.390Z,-11201.53
2023-03-01T16:47:56.166Z,-11203.78
2023-03-01T16:51:02.994Z,-11197.59
2023-03-01T16:54:09.574Z,-11198.16
2023-03-01T16:57:16.994Z,-11198.03
2023-03-01T17:00:24.130Z,-11197.59
2023-03-01T17:03:32.072Z,-11195.63
2023-03-01T17:06:38.403Z,-11192.81
2023-03-01T17:09:45.029Z,-11191.28
2023-03-01T17:12:51.879Z,-11190.56
2023-03-01T17:15:58.107Z,-11186.06
2023-03-01T17:19:05.879Z,-11186.91
2023-03-01T17:22:14.090Z,-11188.19
2023-03-01T17:25:20.856Z,-11187.47
2023-03-01T17:28:32.668Z,-11183.69
2023-03-01T17:31:39.020Z,-11187.63
2023-03-01T17:34:47.143Z,-11185.66
2023-03-01T17:37:53.758Z,-11185.50
2023-03-01T17:41:01.978Z,-11186.63
2023-03-01T17:44:08.711Z,-11173.16
2023-03-01T17:47:15.389Z,-11172.03
2023-03-01T17:50:23.061Z,-11175.25
2023-03-01T17:53:30.139Z,-11178.19
2023-03-01T17:56:38.847Z,-11174.81
2023-03-01T17:59:44.977Z,-11190.44
2023-03-01T18:02:51.786Z,-11180.44
2023-03-01T18:05:59.784Z,-11179.19
2023-03-01T18:09:06.398Z,-11175.66
2023-03-01T18:12:12.856Z,-11173.97
2023-03-01T18:15:20.254Z,-11165.84
2023-03-01T18:18:27.153Z,-11164.16
2023-03-01T18:21:34.926Z,-11164.84
2023-03-01T18:24:42.108Z,-11163.16
2023-03-01T18:27:48.306Z,-11159.38
2023-03-01T18:30:58.452Z,-11151.34
2023-03-01T18:34:05.071Z,-11156.00
2023-03-01T18:37:12.835Z,-11150.38
2023-03-01T18:40:19.707Z,-11158.53
2023-03-01T18:43:28.900Z,-11154.88
2023-03-01T18:46:37.957Z,-11158.53
2023-03-01T18:49:44.820Z,-11158.53
2023-03-01T18:52:52.739Z,-11165.00
2023-03-01T18:56:02.276Z,-11159.94
2023-03-01T18:59:09.077Z,-11161.63
2023-03-01T19:02:16.518Z,-11165.97
2023-03-01T19:05:23.493Z,-11163.03
2023-03-01T19:08:31.610Z,-11157.41
2023-03-01T19:11:38.247Z,-11161.91
2023-03-01T19:14:44.519Z,-11163.88
2023-03-01T19:17:52.098Z,-11161.06
2023-03-01T19:21:03.903Z,-11157.69
2023-03-01T19:24:12.448Z,-11167.25
2023-03-01T19:27:18.826Z,-11165.84
2023-03-01T19:30:27.298Z,-11163.44
2023-03-01T19:33:35.278Z,-11167.66
2023-03-01T19:36:43.075Z,-11169.22
2023-03-01T19:39:51.222Z,-11165.28
2023-03-01T19:42:57.674Z,-11163.88
2023-03-01T19:46:04.545Z,-11159.66
2023-03-01T19:49:10.891Z,-11148.41
2023-03-01T19:52:17.304Z,-11151.50
2023-03-01T19:55:25.918Z,-11145.03
2023-03-01T19:58:33.480Z,-11148.81
2023-03-01T20:01:42.504Z,-11149.25
2023-03-01T20:04:49.123Z,-11158.25
2023-03-01T20:07:57.604Z,-11148.41
2023-03-01T20:11:07.344Z,-11150.38
2023-03-01T20:14:13.557Z,-11148.97
2023-03-01T20:17:19.657Z,-11157.97
2023-03-01T20:20:25.902Z,-11152.47
2023-03-01T20:23:32.051Z,-11153.75
2023-03-01T20:26:41.135Z,-11158.38
2023-03-01T20:29:47.581Z,-11162.59
2023-03-01T20:32:53.822Z,-11155.28
2023-03-01T20:36:00.103Z,-11155.28
2023-03-01T20:39:06.467Z,-11161.34
2023-03-01T20:42:14.166Z,-11159.38
2023-03-01T20:45:20.902Z,-11155.28
2023-03-01T20:48:27.347Z,-11161.34
2023-03-01T20:51:33.790Z,-11160.63
2023-03-01T20:54:40.172Z,-11151.91
2023-03-01T20:57:47.961Z,-11160.34
2023-03-01T21:00:54.504Z,-11161.06
2023-03-01T21:04:00.764Z,-11161.47
2023-03-01T21:07:07.089Z,-11159.50
2023-03-01T21:10:13.604Z,-11149.38
2023-03-01T21:13:21.764Z,-11158.53
2023-03-01T21:16:28.389Z,-11148.41
2023-03-01T21:19:37.666Z,-11151.22
2023-03-01T21:22:44.097Z,-11159.94
2023-03-01T21:25:59.877Z,-11159.09
2023-03-01T21:29:07.567Z,-11145.72
2023-03-01T21:32:15.419Z,-11151.78
2023-03-01T21:35:21.746Z,-11155.44
2023-03-01T21:38:30.173Z,-11161.06
2023-03-01T21:41:38.652Z,-11165.84
2023-03-01T21:44:46.902Z,-11151.78
2023-03-01T21:47:53.293Z,-11161.06
2023-03-01T21:51:00.900Z,-11159.50
2023-03-01T21:54:08.290Z,-11157.41
2023-03-01T21:57:14.762Z,-11152.75
2023-03-01T22:00:24.422Z,-11154.72
2023-03-01T22:03:30.764Z,-11164.72
2023-03-01T22:06:40.923Z,-11164.56
2023-03-01T22:09:47.402Z,-11169.22
2023-03-01T22:12:54.172Z,-11168.78
2023-03-01T22:16:02.845Z,-11162.59
2023-03-01T22:19:10.481Z,-11167.53
2023-03-01T22:22:19.282Z,-11168.66
2023-03-01T22:25:25.282Z,-11161.63
2023-03-01T22:28:31.775Z,-11163.72
2023-03-01T22:31:39.868Z,-11166.25
2023-03-01T22:34:46.595Z,-11167.09
2023-03-01T22:37:52.907Z,-11158.25
2023-03-01T22:40:59.715Z,-11160.78
2023-03-01T22:44:06.374Z,-11162.88
2023-03-01T22:47:14.042Z,-11163.44
2023-03-01T22:50:20.351Z,-11162.75
2023-03-01T22:53:26.791Z,-11154.31
2023-03-01T22:56:36.636Z,-11157.41
2023-03-01T22:59:42.931Z,-11155.72
2023-03-01T23:02:50.491Z,-11162.31
2023-03-01T23:05:57.278Z,-11154.88
2023-03-01T23:09:07.000Z,-11155.16
2023-03-01T23:12:13.330Z,-11157.97
2023-03-01T23:15:19.730Z,-11156.13
2023-03-01T23:18:27.461Z,-11149.25
2023-03-01T23:21:34.339Z,-11149.25
2023-03-01T23:24:40.901Z,-11147.00
2023-03-01T23:27:47.146Z,-11155.28
2023-03-01T23:30:58.796Z,-11154.88
2023-03-01T23:34:06.445Z,-11154.72
2023-03-01T23:37:12.685Z,-11148.69
2023-03-01T23:40:20.694Z,-11153.75
2023-03-01T23:43:27.356Z,-11153.19
2023-03-01T23:46:37.041Z,-11149.25
2023-03-01T23:49:44.870Z,-11152.19
2023-03-01T23:52:51.326Z,-11149.94
2023-03-01T23:55:58.341Z,-11145.03
2023-03-01T23:59:09.135Z,-11146.16
